createdAt,value
2022-12-01T00:13:45.638Z,2.30
2022-12-01T00:33:22.619Z,2.40
2022-12-01T01:19:11.768Z,2.10
2022-12-01T02:04:36.373Z,2.00
2022-12-01T02:49:59.676Z,2.00
2022-12-01T04:01:33.008Z,1.90
2022-12-01T04:36:23.158Z,1.90
2022-12-01T04:41:58.060Z,1.90
2022-12-01T04:51:52.829Z,1.90
2022-12-01T05:26:11.407Z,1.90
2022-12-01T05:50:50.450Z,1.90
2022-12-01T06:46:38.396Z,1.80
2022-12-01T07:11:57.869Z,2.00
2022-12-01T07:42:22.597Z,2.00
2022-12-01T08:23:12.496Z,2.20
2022-12-01T08:48:37.511Z,2.30
2022-12-01T09:09:09.185Z,2.20
2022-12-01T09:34:30.268Z,2.20
2022-12-01T09:59:26.440Z,2.20
2022-12-01T10:30:25.071Z,2.20
2022-12-01T11:01:01.486Z,2.10
2022-12-01T11:05:14.196Z,2.00
2022-12-01T11:31:11.352Z,2.00
2022-12-01T12:01:41.992Z,2.00
2022-12-01T12:31:40.959Z,1.90
2022-12-01T12:51:50.411Z,1.80
2022-12-01T13:27:20.562Z,1.40
2022-12-01T13:48:04.680Z,1.30
2022-12-01T14:08:27.347Z,1.30
2022-12-01T16:25:18.468Z,0.30
2022-12-01T16:45:39.216Z,0.00
2022-12-01T17:51:29.445Z,-0.20
2022-12-01T19:22:43.440Z,-0.40
2022-12-01T19:53:04.563Z,-0.50
2022-12-01T20:38:27.718Z,-0.50
2022-12-01T21:03:48.428Z,-0.70
2022-12-01T21:24:34.197Z,-0.60
2022-12-01T21:28:53.869Z,-0.60
2022-12-01T21:59:51.015Z,-0.60
2022-12-01T22:30:25.778Z,-0.70
2022-12-01T22:55:45.195Z,-0.60
2022-12-01T23:36:16.669Z,-1.00
